Terminal Aerodrome Forecast
Issued by NWS

Current Version | Previous Version | Text Only | Print | Product List | Glossary On
Versions: 1 2 3 4 5 6 7 8 9 10 11 12 13 14 15 16 17 18 19 20 21 22 23 24 25 26 27 28 29 30
000
FTUS45 KSLC 230529
TAFLGU
TAF
KLGU 230529Z 2306/2406 11010KT 6SM -RA BKN060 OVC080
     FM230800 09005KT P6SM BKN100
     FM231900 20010G18KT P6SM SCT090 BKN130
     FM232100 20012KT P6SM VCSH SCT080 BKN120
     FM240200 VRB04KT P6SM BKN120=

USA.gov is the U.S. government's official web portal to all federal, state and local government web resources and services.